Mexico V — XCKR — position and weather

sailwx.info

Track history (hours):
 
Tides and Currents Weather Stations Pressure Air Temp Water Temp Dewpoint Dewpoint Depression Visibility Wind Speed Wind Dir Waves Ship Positions

Mexico V

Last reported at 2017-Dec-18 01:21 UTC. Time now 2017-Dec-18 05:21 UTC.
Position N 20°31' W 086°57'.

Length 40 m; draft 1.5 m.

Type: Ship. MMSI: 345110005.

Date/timePositionNaut miles runAvg speedWind from/ knotsBaromVisibWave heightAir tempDewpointWater temp
2017-Dec-18 01:21N 20°31' W 086°57'0 0.1
2017-Dec-18 01:00N 20°31' W 086°57'0 0.0
2017-Dec-18 00:31N 20°31' W 086°57'0 0.0
2017-Dec-18 00:01N 20°31' W 086°57'2 4.8
2017-Dec-17 23:31N 20°32' W 086°59'1 1.1
2017-Dec-17 22:19N 20°34' W 086°59'4 5.1
2017-Dec-17 21:37N 20°31' W 086°57'0 0.2
2017-Dec-17 21:30N 20°31' W 086°57'0 0.0
2017-Dec-17 21:00N 20°31' W 086°57'0 0.0
2017-Dec-17 20:30N 20°31' W 086°57'0 0.0
2017-Dec-17 20:00N 20°31' W 086°57'0 0.0
2017-Dec-17 19:30N 20°31' W 086°57'0 0.1
2017-Dec-17 19:00N 20°31' W 086°57'3 7.0
2017-Dec-17 18:30N 20°33' W 086°60'1 0.9
2017-Dec-17 17:15N 20°33' W 086°59'2 9.6
2017-Dec-17 17:00N 20°31' W 086°57'3 5.9
2017-Dec-17 16:30N 20°33' W 086°60'1 0.5
2017-Dec-17 15:12N 20°32' W 086°59'211.9
2017-Dec-17 15:00N 20°31' W 086°57'3 5.3
2017-Dec-17 14:30N 20°32' W 086°59'1 0.4
2017-Dec-17 13:13N 20°32' W 086°59'2 9.6
2017-Dec-17 12:59N 20°31' W 086°57'0 0.0
2017-Dec-17 12:30N 20°31' W 086°57'0 0.0
2017-Dec-16 23:43N 20°31' W 086°57'314.3
2017-Dec-16 23:30N 20°33' W 086°59'0 0.3
2017-Dec-16 22:16N 20°33' W 086°59'3 8.2
2017-Dec-16 21:58N 20°31' W 086°57'0 0.0
2017-Dec-16 21:30N 20°31' W 086°57'0 0.1
2017-Dec-16 21:00N 20°31' W 086°57'0 0.0
2017-Dec-16 20:30N 20°31' W 086°57'0 0.0
2017-Dec-16 20:00N 20°31' W 086°57'0 0.0
2017-Dec-16 19:30N 20°31' W 086°57'0 0.0
2017-Dec-16 19:00N 20°31' W 086°57'2 1.2
2017-Dec-16 17:17N 20°32' W 086°59'2 3.3
2017-Dec-16 16:40N 20°31' W 086°57'315.9
2017-Dec-16 16:30N 20°33' W 086°59'1 1.2
2017-Dec-16 15:23N 20°34' W 087°00'4 6.4
2017-Dec-16 14:45N 20°31' W 086°57'3 1.8
2017-Dec-16 13:13N 20°33' W 086°59'3 5.0
2017-Dec-16 12:39N 20°31' W 086°57'0 0.0
2017-Dec-15 23:48N 20°31' W 086°57'0 0.6
2017-Dec-15 23:30N 20°31' W 086°57'3 5.1
2017-Dec-15 23:00N 20°29' W 086°59'4 2.1
2017-Dec-15 21:18N 20°32' W 086°59'2 7.7
2017-Dec-15 21:00N 20°31' W 086°57'0 0.0
2017-Dec-15 20:30N 20°31' W 086°57'0 0.0
2017-Dec-15 20:00N 20°31' W 086°57'0 0.0
2017-Dec-15 19:30N 20°31' W 086°57'0 0.0
2017-Dec-15 19:00N 20°31' W 086°57'2 3.9
2017-Dec-15 18:30N 20°32' W 086°59'1 0.4
2017-Dec-15 17:16N 20°32' W 086°59'2 3.9
2017-Dec-15 16:40N 20°31' W 086°57'317.1
2017-Dec-15 16:30N 20°32' W 086°59'1 0.5
2017-Dec-15 15:16N 20°32' W 086°59'2 4.2
2017-Dec-15 14:43N 20°31' W 086°57'2 1.5
2017-Dec-15 13:13N 20°32' W 086°59'2 7.0
2017-Dec-15 12:54N 20°31' W 086°57'0 0.1
2017-Dec-15 12:30N 20°31' W 086°57'2 0.1
2017-Dec-14 17:12N 20°32' W 086°59'212.6
2017-Dec-14 17:01N 20°31' W 086°57'3 5.7
2017-Dec-14 16:30N 20°33' W 086°60'3 2.0
2017-Dec-14 15:00N 20°31' W 086°57'3 5.4
2017-Dec-14 14:30N 20°33' W 086°59'1 0.6
2017-Dec-14 13:15N 20°32' W 086°59'2 8.1
2017-Dec-14 13:00N 20°31' W 086°57'0 0.0
2017-Dec-14 12:31N 20°31' W 086°57'0 0.0
2017-Dec-14 00:04N 20°31' W 086°57'0 1.1
2017-Dec-14 00:01N 20°31' W 086°57'2 3.8
2017-Dec-13 23:31N 20°32' W 086°58'0 0.4
2017-Dec-13 22:15N 20°33' W 086°59'2 9.7
2017-Dec-13 22:00N 20°31' W 086°57'0 0.0
2017-Dec-13 21:30N 20°31' W 086°57'0 0.1
2017-Dec-13 21:00N 20°31' W 086°57'0 0.0
2017-Dec-13 20:30N 20°31' W 086°57'0 0.0
2017-Dec-13 20:00N 20°31' W 086°57'0 0.0
2017-Dec-13 19:30N 20°31' W 086°57'0 0.0
2017-Dec-13 19:00N 20°31' W 086°57'2 4.0
2017-Dec-13 18:30N 20°32' W 086°59'1 0.7
2017-Dec-13 17:16N 20°33' W 086°59'310.3
2017-Dec-13 17:00N 20°31' W 086°57'3 5.2
2017-Dec-13 16:31N 20°33' W 086°59'0 0.1
2017-Dec-13 15:16N 20°33' W 086°59'3 9.8
2017-Dec-13 15:00N 20°31' W 086°57'1 1.8
2017-Dec-13 14:31N 20°31' W 086°58'2 1.3
2017-Dec-13 13:16N 20°33' W 086°59'3 9.8
2017-Dec-13 13:00N 20°31' W 086°57'0 0.0
2017-Dec-13 12:30N 20°31' W 086°57'0 0.0
2017-Dec-12 23:41N 20°31' W 086°57'315.1
2017-Dec-12 23:30N 20°32' W 086°59'0 0.3
2017-Dec-12 22:15N 20°32' W 086°59'2 9.2
2017-Dec-12 22:00N 20°31' W 086°57'0 0.0
2017-Dec-12 21:30N 20°31' W 086°57'0 0.1
2017-Dec-12 21:00N 20°31' W 086°57'0 0.0
2017-Dec-12 20:30N 20°31' W 086°57'0 0.0
2017-Dec-12 20:00N 20°31' W 086°57'0 0.0
2017-Dec-12 19:30N 20°31' W 086°57'0 0.0
2017-Dec-12 19:00N 20°31' W 086°57'3 5.3
2017-Dec-12 18:30N 20°32' W 086°59'0 0.2
2017-Dec-12 17:17N 20°33' W 086°59'2 8.9
2017-Dec-12 17:00N 20°31' W 086°57'4 7.1
2017-Dec-12 16:30N 20°33' W 086°60'1 0.9
2017-Dec-12 15:17N 20°33' W 086°59'3 9.6
2017-Dec-12 15:00N 20°31' W 086°57'3 5.1
2017-Dec-12 14:30N 20°33' W 086°59'1 0.6
2017-Dec-12 13:17N 20°33' W 086°59'311.4
2017-Dec-12 13:00N 20°31' W 086°57'0 0.0
2017-Dec-12 12:30N 20°31' W 086°57'0 0.0
2017-Dec-12 01:39N 20°31' W 086°57'0 0.3
2017-Dec-12 01:30N 20°31' W 086°57'0 0.0
2017-Dec-12 01:00N 20°31' W 086°57'1 2.5
2017-Dec-12 00:31N 20°32' W 086°58'2 1.6
2017-Dec-11 23:19N 20°33' W 086°59'310.5
2017-Dec-11 23:00N 20°31' W 086°57'2 3.3
2017-Dec-11 22:31N 20°32' W 086°58'0 0.1
2017-Dec-11 21:16N 20°32' W 086°58'2 6.0
2017-Dec-11 21:00N 20°31' W 086°57'0 0.0
2017-Dec-11 20:30N 20°31' W 086°57'0 0.0
2017-Dec-11 20:00N 20°31' W 086°57'2 4.6
2017-Dec-11 19:30N 20°32' W 086°59'0 0.3
2017-Dec-11 18:17N 20°33' W 086°59'3 9.6
2017-Dec-11 18:00N 20°31' W 086°57'3 5.2
2017-Dec-11 17:31N 20°33' W 086°59'0 0.3
2017-Dec-11 16:18N 20°33' W 086°59'310.2
2017-Dec-11 16:01N 20°31' W 086°57'3 1.4
2017-Dec-11 13:42N 20°33' W 086°59'316.5
2017-Dec-11 13:30N 20°31' W 086°57'0 0.1
2017-Dec-11 13:00N 20°30' W 086°57'0 0.0
2017-Dec-11 12:31N 20°30' W 086°57'0 0.7
2017-Dec-11 12:00N 20°31' W 086°57'  
2017-Dec-08 23:27N 20°31' W 086°57'1 2.9
2017-Dec-08 23:01N 20°32' W 086°58'3 2.4
2017-Dec-08 21:40N 20°34' W 087°00'320.2
2017-Dec-08 21:30N 20°32' W 086°58'1 2.2
2017-Dec-08 21:00N 20°31' W 086°57'0 0.0
2017-Dec-08 20:30N 20°31' W 086°57'0 0.0
2017-Dec-08 20:00N 20°31' W 086°57'0 0.0
2017-Dec-08 19:30N 20°31' W 086°57'0 0.1
2017-Dec-08 19:00N 20°31' W 086°57'4 7.3
2017-Dec-08 18:31N 20°34' W 086°60'0 0.3
2017-Dec-08 17:23N 20°34' W 086°60'410.5
2017-Dec-08 17:00N 20°31' W 086°57'4 7.6
2017-Dec-08 16:30N 20°34' W 086°60'0 0.1
2017-Dec-08 15:21N 20°34' W 086°60'411.5
2017-Dec-08 15:00N 20°31' W 086°57'3 6.0
2017-Dec-08 14:30N 20°33' W 086°59'1 1.0
2017-Dec-08 13:21N 20°34' W 087°00'412.4
2017-Dec-08 13:00N 20°31' W 086°57'  
Track history (hours):
 
Tides and Currents Weather Stations Pressure Air Temp Water Temp Dewpoint Dewpoint Depression Visibility Wind Speed Wind Dir Waves Ship Positions

Mexico V

Last reported at 2017-Dec-18 01:21 UTC. Time now 2017-Dec-18 05:21 UTC.
Position N 20°31' W 086°57'.

Length 40 m; draft 1.5 m.

Type: Ship. MMSI: 345110005.

Date/timePositionNaut miles runAvg speedWind from/ knotsBaromVisibWave heightAir tempDewpointWater temp
2017-Dec-18 01:21N 20°31' W 086°57'0 0.1
2017-Dec-18 01:00N 20°31' W 086°57'0 0.0
2017-Dec-18 00:31N 20°31' W 086°57'0 0.0
2017-Dec-18 00:01N 20°31' W 086°57'2 4.8
2017-Dec-17 23:31N 20°32' W 086°59'1 1.1
2017-Dec-17 22:19N 20°34' W 086°59'4 5.1
2017-Dec-17 21:37N 20°31' W 086°57'0 0.2
2017-Dec-17 21:30N 20°31' W 086°57'0 0.0
2017-Dec-17 21:00N 20°31' W 086°57'0 0.0
2017-Dec-17 20:30N 20°31' W 086°57'0 0.0
2017-Dec-17 20:00N 20°31' W 086°57'0 0.0
2017-Dec-17 19:30N 20°31' W 086°57'0 0.1
2017-Dec-17 19:00N 20°31' W 086°57'3 7.0
2017-Dec-17 18:30N 20°33' W 086°60'1 0.9
2017-Dec-17 17:15N 20°33' W 086°59'2 9.6
2017-Dec-17 17:00N 20°31' W 086°57'3 5.9
2017-Dec-17 16:30N 20°33' W 086°60'1 0.5
2017-Dec-17 15:12N 20°32' W 086°59'211.9
2017-Dec-17 15:00N 20°31' W 086°57'3 5.3
2017-Dec-17 14:30N 20°32' W 086°59'1 0.4
2017-Dec-17 13:13N 20°32' W 086°59'2 9.6
2017-Dec-17 12:59N 20°31' W 086°57'0 0.0
2017-Dec-17 12:30N 20°31' W 086°57'0 0.0
2017-Dec-16 23:43N 20°31' W 086°57'314.3
2017-Dec-16 23:30N 20°33' W 086°59'0 0.3
2017-Dec-16 22:16N 20°33' W 086°59'3 8.2
2017-Dec-16 21:58N 20°31' W 086°57'0 0.0
2017-Dec-16 21:30N 20°31' W 086°57'0 0.1
2017-Dec-16 21:00N 20°31' W 086°57'0 0.0
2017-Dec-16 20:30N 20°31' W 086°57'0 0.0
2017-Dec-16 20:00N 20°31' W 086°57'0 0.0
2017-Dec-16 19:30N 20°31' W 086°57'0 0.0
2017-Dec-16 19:00N 20°31' W 086°57'2 1.2
2017-Dec-16 17:17N 20°32' W 086°59'2 3.3
2017-Dec-16 16:40N 20°31' W 086°57'315.9
2017-Dec-16 16:30N 20°33' W 086°59'1 1.2
2017-Dec-16 15:23N 20°34' W 087°00'4 6.4
2017-Dec-16 14:45N 20°31' W 086°57'3 1.8
2017-Dec-16 13:13N 20°33' W 086°59'3 5.0
2017-Dec-16 12:39N 20°31' W 086°57'0 0.0
2017-Dec-15 23:48N 20°31' W 086°57'0 0.6
2017-Dec-15 23:30N 20°31' W 086°57'3 5.1
2017-Dec-15 23:00N 20°29' W 086°59'4 2.1
2017-Dec-15 21:18N 20°32' W 086°59'2 7.7
2017-Dec-15 21:00N 20°31' W 086°57'0 0.0
2017-Dec-15 20:30N 20°31' W 086°57'0 0.0
2017-Dec-15 20:00N 20°31' W 086°57'0 0.0
2017-Dec-15 19:30N 20°31' W 086°57'0 0.0
2017-Dec-15 19:00N 20°31' W 086°57'2 3.9
2017-Dec-15 18:30N 20°32' W 086°59'1 0.4
2017-Dec-15 17:16N 20°32' W 086°59'2 3.9
2017-Dec-15 16:40N 20°31' W 086°57'317.1
2017-Dec-15 16:30N 20°32' W 086°59'1 0.5
2017-Dec-15 15:16N 20°32' W 086°59'2 4.2
2017-Dec-15 14:43N 20°31' W 086°57'2 1.5
2017-Dec-15 13:13N 20°32' W 086°59'2 7.0
2017-Dec-15 12:54N 20°31' W 086°57'0 0.1
2017-Dec-15 12:30N 20°31' W 086°57'2 0.1
2017-Dec-14 17:12N 20°32' W 086°59'212.6
2017-Dec-14 17:01N 20°31' W 086°57'3 5.7
2017-Dec-14 16:30N 20°33' W 086°60'3 2.0
2017-Dec-14 15:00N 20°31' W 086°57'3 5.4
2017-Dec-14 14:30N 20°33' W 086°59'1 0.6
2017-Dec-14 13:15N 20°32' W 086°59'2 8.1
2017-Dec-14 13:00N 20°31' W 086°57'0 0.0
2017-Dec-14 12:31N 20°31' W 086°57'0 0.0
2017-Dec-14 00:04N 20°31' W 086°57'0 1.1
2017-Dec-14 00:01N 20°31' W 086°57'2 3.8
2017-Dec-13 23:31N 20°32' W 086°58'0 0.4
2017-Dec-13 22:15N 20°33' W 086°59'2 9.7
2017-Dec-13 22:00N 20°31' W 086°57'0 0.0
2017-Dec-13 21:30N 20°31' W 086°57'0 0.1
2017-Dec-13 21:00N 20°31' W 086°57'0 0.0
2017-Dec-13 20:30N 20°31' W 086°57'0 0.0
2017-Dec-13 20:00N 20°31' W 086°57'0 0.0
2017-Dec-13 19:30N 20°31' W 086°57'0 0.0
2017-Dec-13 19:00N 20°31' W 086°57'2 4.0
2017-Dec-13 18:30N 20°32' W 086°59'1 0.7
2017-Dec-13 17:16N 20°33' W 086°59'310.3
2017-Dec-13 17:00N 20°31' W 086°57'3 5.2
2017-Dec-13 16:31N 20°33' W 086°59'0 0.1
2017-Dec-13 15:16N 20°33' W 086°59'3 9.8
2017-Dec-13 15:00N 20°31' W 086°57'1 1.8
2017-Dec-13 14:31N 20°31' W 086°58'2 1.3
2017-Dec-13 13:16N 20°33' W 086°59'3 9.8
2017-Dec-13 13:00N 20°31' W 086°57'0 0.0
2017-Dec-13 12:30N 20°31' W 086°57'0 0.0
2017-Dec-12 23:41N 20°31' W 086°57'315.1
2017-Dec-12 23:30N 20°32' W 086°59'0 0.3
2017-Dec-12 22:15N 20°32' W 086°59'2 9.2
2017-Dec-12 22:00N 20°31' W 086°57'0 0.0
2017-Dec-12 21:30N 20°31' W 086°57'0 0.1
2017-Dec-12 21:00N 20°31' W 086°57'0 0.0
2017-Dec-12 20:30N 20°31' W 086°57'0 0.0
2017-Dec-12 20:00N 20°31' W 086°57'0 0.0
2017-Dec-12 19:30N 20°31' W 086°57'0 0.0
2017-Dec-12 19:00N 20°31' W 086°57'3 5.3
2017-Dec-12 18:30N 20°32' W 086°59'0 0.2
2017-Dec-12 17:17N 20°33' W 086°59'2 8.9
2017-Dec-12 17:00N 20°31' W 086°57'4 7.1
2017-Dec-12 16:30N 20°33' W 086°60'1 0.9
2017-Dec-12 15:17N 20°33' W 086°59'3 9.6
2017-Dec-12 15:00N 20°31' W 086°57'3 5.1
2017-Dec-12 14:30N 20°33' W 086°59'1 0.6
2017-Dec-12 13:17N 20°33' W 086°59'311.4
2017-Dec-12 13:00N 20°31' W 086°57'0 0.0
2017-Dec-12 12:30N 20°31' W 086°57'0 0.0
2017-Dec-12 01:39N 20°31' W 086°57'0 0.3
2017-Dec-12 01:30N 20°31' W 086°57'0 0.0
2017-Dec-12 01:00N 20°31' W 086°57'1 2.5
2017-Dec-12 00:31N 20°32' W 086°58'2 1.6
2017-Dec-11 23:19N 20°33' W 086°59'310.5
2017-Dec-11 23:00N 20°31' W 086°57'2 3.3
2017-Dec-11 22:31N 20°32' W 086°58'0 0.1
2017-Dec-11 21:16N 20°32' W 086°58'2 6.0
2017-Dec-11 21:00N 20°31' W 086°57'0 0.0
2017-Dec-11 20:30N 20°31' W 086°57'0 0.0
2017-Dec-11 20:00N 20°31' W 086°57'2 4.6
2017-Dec-11 19:30N 20°32' W 086°59'0 0.3
2017-Dec-11 18:17N 20°33' W 086°59'3 9.6
2017-Dec-11 18:00N 20°31' W 086°57'3 5.2
2017-Dec-11 17:31N 20°33' W 086°59'0 0.3
2017-Dec-11 16:18N 20°33' W 086°59'310.2
2017-Dec-11 16:01N 20°31' W 086°57'3 1.4
2017-Dec-11 13:42N 20°33' W 086°59'316.5
2017-Dec-11 13:30N 20°31' W 086°57'0 0.1
2017-Dec-11 13:00N 20°30' W 086°57'0 0.0
2017-Dec-11 12:31N 20°30' W 086°57'0 0.7
2017-Dec-11 12:00N 20°31' W 086°57'  
2017-Dec-08 23:27N 20°31' W 086°57'1 2.9
2017-Dec-08 23:01N 20°32' W 086°58'3 2.4
2017-Dec-08 21:40N 20°34' W 087°00'320.2
2017-Dec-08 21:30N 20°32' W 086°58'1 2.2
2017-Dec-08 21:00N 20°31' W 086°57'0 0.0
2017-Dec-08 20:30N 20°31' W 086°57'0 0.0
2017-Dec-08 20:00N 20°31' W 086°57'0 0.0
2017-Dec-08 19:30N 20°31' W 086°57'0 0.1
2017-Dec-08 19:00N 20°31' W 086°57'4 7.3
2017-Dec-08 18:31N 20°34' W 086°60'0 0.3
2017-Dec-08 17:23N 20°34' W 086°60'410.5
2017-Dec-08 17:00N 20°31' W 086°57'4 7.6
2017-Dec-08 16:30N 20°34' W 086°60'0 0.1
2017-Dec-08 15:21N 20°34' W 086°60'411.5
2017-Dec-08 15:00N 20°31' W 086°57'3 6.0
2017-Dec-08 14:30N 20°33' W 086°59'1 1.0
2017-Dec-08 13:21N 20°34' W 087°00'412.4
2017-Dec-08 13:00N 20°31' W 086°57'  

Dump ship's entire track history